Los Angeles, California
Traffic Map
Current Weather Conditions
Los Angeles, California
Overcast
Overcast
74°
Feels Like: 74°
Wind Chill: 74° Ceiling: 2500
Heat Index: 74° Visibility: 10mi
Dew Point: 60° Wind: 0mph
Humidity: 62% Direction: ° ()
Pressure: 29.98in Gusts: 0mph
Raw Report DataKCQT 051947Z AUTO 00000KT 10SM OVC025 23/16 A2998 RMK AO2 SLP149 T02330156
Traffic Incident Summary
Active as of:
Severity:
Category:
InformationThere was an issue retrieving the traffic information for this location. Please try a different location or try again shortly.
Advertisements
Track Severe Weather on mobile